Time;durP1;ratioP1;P1;durP2;ratioP2;P2;SDS_P1;SDS_P2;PMS_P1;PMS_P2;Temp;Humidity;BMP_temperature;BMP_pressure;BME280_temperature;BME280_humidity;BME280_pressure;Samples;Min_cycle;Max_cycle;Signal;HPM_P1;HPM_P2
2022/08/26 00:00:49;;;;;;;4.83;3.40;;;;;;;;;;5015597;28;20399;-69
2022/08/26 00:03:16;;;;;;;3.50;3.37;;;;;;;;;;5015628;28;20768;-68
2022/08/26 00:05:42;;;;;;;4.60;3.70;;;;;;;;;;5015797;28;20410;-67
2022/08/26 00:08:08;;;;;;;3.67;3.40;;;;;;;;;;5015560;28;20402;-68
2022/08/26 00:10:34;;;;;;;3.80;3.60;;;;;;;;;;5015406;28;20409;-67
2022/08/26 00:13:00;;;;;;;3.97;3.77;;;;;;;;;;5015244;28;20813;-68
2022/08/26 00:15:26;;;;;;;4.73;3.77;;;;;;;;;;5015686;28;20409;-67
2022/08/26 00:17:53;;;;;;;3.33;3.23;;;;;;;;;;5015540;28;20414;-71
2022/08/26 00:20:22;;;;;;;3.73;3.53;;;;;;;;;;5015291;28;20768;-68
2022/08/26 00:22:47;;;;;;;4.17;3.87;;;;;;;;;;5015580;28;20486;-68
2022/08/26 00:25:13;;;;;;;6.40;3.13;;;;;;;;;;5015500;28;20425;-68
2022/08/26 00:27:40;;;;;;;3.80;3.50;;;;;;;;;;5015462;28;20763;-67
2022/08/26 00:30:07;;;;;;;3.63;3.37;;;;;;;;;;5015550;28;20427;-68
2022/08/26 00:32:33;;;;;;;3.33;3.33;;;;;;;;;;5015106;28;20501;-67
2022/08/26 00:34:59;;;;;;;5.43;3.60;;;;;;;;;;5015105;28;20490;-68
2022/08/26 00:37:25;;;;;;;3.67;3.47;;;;;;;;;;5014999;28;20504;-67
2022/08/26 00:39:51;;;;;;;3.50;3.20;;;;;;;;;;5014940;28;20405;-67
2022/08/26 00:42:18;;;;;;;4.03;3.60;;;;;;;;;;5030197;28;20433;-67
2022/08/26 00:44:44;;;;;;;10.33;3.60;;;;;;;;;;5014762;28;20524;-67
2022/08/26 00:47:19;;;;;;;5.00;3.40;;;;;;;;;;5014994;28;20496;-79
2022/08/26 00:49:46;;;;;;;3.40;3.20;;;;;;;;;;5014812;28;20438;-68
2022/08/26 00:52:15;;;;;;;3.57;3.37;;;;;;;;;;5014549;28;21039;-68
2022/08/26 00:54:45;;;;;;;3.60;3.40;;;;;;;;;;5015032;28;20763;-68
2022/08/26 00:57:13;;;;;;;4.07;3.87;;;;;;;;;;5014995;28;20411;-67
2022/08/26 00:59:39;;;;;;;5.13;3.60;;;;;;;;;;5014646;28;20433;-67
2022/08/26 01:02:05;;;;;;;4.00;3.70;;;;;;;;;;5013992;28;20537;-67
2022/08/26 01:04:33;;;;;;;3.40;3.30;;;;;;;;;;5014541;28;20400;-67
2022/08/26 01:06:59;;;;;;;3.63;3.43;;;;;;;;;;5014343;28;20508;-68
2022/08/26 01:09:25;;;;;;;2.80;2.80;;;;;;;;;;5014423;28;20464;-68
2022/08/26 01:11:53;;;;;;;3.33;3.23;;;;;;;;;;5014366;28;20456;-68
2022/08/26 01:14:20;;;;;;;3.50;3.40;;;;;;;;;;5014367;28;20416;-68
2022/08/26 01:16:46;;;;;;;4.43;4.13;;;;;;;;;;5014428;28;20393;-67
2022/08/26 01:19:18;;;;;;;3.70;3.60;;;;;;;;;;5014752;28;20765;-68
2022/08/26 01:21:56;;;;;;;3.43;3.30;;;;;;;;;;5014119;28;20420;-68
2022/08/26 01:24:24;;;;;;;3.77;3.67;;;;;;;;;;5014182;28;20477;-67
2022/08/26 01:26:51;;;;;;;3.30;3.20;;;;;;;;;;5014203;28;20401;-67
2022/08/26 01:29:18;;;;;;;3.90;3.60;;;;;;;;;;5014057;28;20766;-68
2022/08/26 01:31:47;;;;;;;3.40;3.30;;;;;;;;;;5014033;28;20469;-67
2022/08/26 01:34:19;;;;;;;6.70;3.60;;;;;;;;;;5014032;28;20520;-68
2022/08/26 01:36:45;;;;;;;3.70;3.50;;;;;;;;;;5014020;28;20433;-67
2022/08/26 01:39:11;;;;;;;3.57;3.47;;;;;;;;;;5014488;28;20754;-73
2022/08/26 01:41:40;;;;;;;3.83;3.60;;;;;;;;;;5015204;28;20859;-81
2022/08/26 01:44:08;;;;;;;3.30;3.20;;;;;;;;;;5014098;28;20890;-68
2022/08/26 01:46:34;;;;;;;8.17;3.80;;;;;;;;;;5029112;28;20417;-67
2022/08/26 01:49:02;;;;;;;3.80;3.50;;;;;;;;;;5013880;28;20489;-67
2022/08/26 01:51:30;;;;;;;3.60;3.50;;;;;;;;;;5013743;28;20493;-68
2022/08/26 01:53:56;;;;;;;3.77;3.57;;;;;;;;;;5013856;28;20407;-68
2022/08/26 01:56:23;;;;;;;4.00;3.80;;;;;;;;;;5013799;28;20399;-68
2022/08/26 01:58:54;;;;;;;4.70;3.80;;;;;;;;;;5013682;28;20883;-67
2022/08/26 02:01:21;;;;;;;3.23;3.20;;;;;;;;;;5013752;28;20398;-68
2022/08/26 02:03:58;;;;;;;3.70;3.50;;;;;;;;;;5013710;28;20496;-77
2022/08/26 02:06:24;;;;;;;3.90;3.70;;;;;;;;;;5013627;28;20404;-67
2022/08/26 02:08:54;;;;;;;3.80;3.60;;;;;;;;;;5013896;28;20405;-67
2022/08/26 02:11:20;;;;;;;3.30;3.20;;;;;;;;;;5013579;28;20479;-67
2022/08/26 02:13:49;;;;;;;3.70;3.50;;;;;;;;;;5014248;28;20416;-67
2022/08/26 02:16:15;;;;;;;3.50;3.30;;;;;;;;;;5017551;28;20411;-67
2022/08/26 02:18:43;;;;;;;3.70;3.60;;;;;;;;;;5017479;28;20421;-75
2022/08/26 02:21:09;;;;;;;4.07;3.80;;;;;;;;;;5017409;28;20408;-67
2022/08/26 02:23:35;;;;;;;3.53;3.33;;;;;;;;;;5017424;28;20960;-68
2022/08/26 02:26:11;;;;;;;4.33;3.90;;;;;;;;;;5017359;28;20505;-67
2022/08/26 02:28:46;;;;;;;3.40;3.20;;;;;;;;;;5017391;28;20414;-67
2022/08/26 02:31:12;;;;;;;3.40;3.30;;;;;;;;;;5017472;28;20413;-67
2022/08/26 02:33:38;;;;;;;3.53;3.43;;;;;;;;;;5017281;28;20496;-68
2022/08/26 02:36:05;;;;;;;4.50;4.00;;;;;;;;;;5017192;28;20435;-67
2022/08/26 02:38:31;;;;;;;3.57;3.47;;;;;;;;;;5017143;28;20407;-68
2022/08/26 02:40:57;;;;;;;3.60;3.50;;;;;;;;;;5017080;28;20522;-68
2022/08/26 02:43:23;;;;;;;4.23;4.00;;;;;;;;;;5017033;28;20442;-68
2022/08/26 02:45:49;;;;;;;8.20;3.60;;;;;;;;;;5017041;28;20407;-69
2022/08/26 02:48:16;;;;;;;3.77;3.60;;;;;;;;;;5016938;28;20411;-68
2022/08/26 02:50:42;;;;;;;8.40;3.63;;;;;;;;;;5016913;28;20405;-68
2022/08/26 02:53:09;;;;;;;3.50;3.50;;;;;;;;;;5016666;28;20487;-68
2022/08/26 02:55:35;;;;;;;7.07;4.47;;;;;;;;;;5016894;28;20498;-68
2022/08/26 02:58:01;;;;;;;3.70;3.40;;;;;;;;;;5016818;28;20418;-70
2022/08/26 03:00:28;;;;;;;3.97;3.77;;;;;;;;;;5016791;28;20453;-69
2022/08/26 03:02:54;;;;;;;4.10;3.73;;;;;;;;;;5016896;28;20423;-68
2022/08/26 03:05:20;;;;;;;4.20;3.90;;;;;;;;;;5016648;28;20413;-67
2022/08/26 03:07:47;;;;;;;4.10;3.90;;;;;;;;;;5016900;28;20419;-67
2022/08/26 03:10:13;;;;;;;3.83;3.60;;;;;;;;;;5016543;28;20410;-67
2022/08/26 03:12:39;;;;;;;3.87;3.77;;;;;;;;;;5016413;28;20468;-67
2022/08/26 03:15:06;;;;;;;5.70;3.83;;;;;;;;;;5016467;28;20395;-73
2022/08/26 03:17:32;;;;;;;4.73;3.60;;;;;;;;;;5016595;28;20776;-68
2022/08/26 03:19:58;;;;;;;4.10;3.80;;;;;;;;;;5016368;28;20897;-67
2022/08/26 03:22:25;;;;;;;3.60;3.50;;;;;;;;;;5016237;28;20418;-67
2022/08/26 03:24:51;;;;;;;3.90;3.80;;;;;;;;;;5015858;28;20884;-67
2022/08/26 03:27:17;;;;;;;4.00;3.90;;;;;;;;;;5016322;28;20414;-67
2022/08/26 03:32:28;;;;;;;3.87;3.70;;;;;;;;;;5016077;28;20538;-67
2022/08/26 03:34:55;;;;;;;4.40;3.97;;;;;;;;;;5016106;28;20417;-67
2022/08/26 03:37:21;;;;;;;5.17;3.93;;;;;;;;;;5016079;28;20407;-67
2022/08/26 03:39:47;;;;;;;4.20;4.00;;;;;;;;;;5016065;28;20425;-67
2022/08/26 03:42:13;;;;;;;4.13;3.83;;;;;;;;;;5016003;28;20493;-67
2022/08/26 03:44:39;;;;;;;4.37;4.07;;;;;;;;;;5015967;28;20947;-68
2022/08/26 03:47:06;;;;;;;5.10;3.97;;;;;;;;;;5015958;28;20552;-67
2022/08/26 03:49:33;;;;;;;4.17;4.07;;;;;;;;;;5015878;28;20400;-68
2022/08/26 03:51:59;;;;;;;4.20;4.00;;;;;;;;;;5015709;28;20492;-68
2022/08/26 03:54:25;;;;;;;3.77;3.67;;;;;;;;;;5015749;28;20402;-68
2022/08/26 03:56:52;;;;;;;3.80;3.67;;;;;;;;;;5015734;28;20758;-69
2022/08/26 03:59:18;;;;;;;4.23;3.70;;;;;;;;;;5015626;28;20492;-68
2022/08/26 04:01:44;;;;;;;4.13;3.90;;;;;;;;;;5015569;28;20403;-67
2022/08/26 04:04:10;;;;;;;3.90;3.57;;;;;;;;;;5015583;28;20759;-67
2022/08/26 04:06:38;;;;;;;4.30;4.20;;;;;;;;;;5015540;28;20437;-67
2022/08/26 04:09:06;;;;;;;4.97;4.00;;;;;;;;;;5015411;28;20406;-68
2022/08/26 04:11:34;;;;;;;5.10;3.73;;;;;;;;;;5015406;28;20451;-72
2022/08/26 04:14:01;;;;;;;4.50;4.17;;;;;;;;;;5015296;28;20917;-68
2022/08/26 04:16:28;;;;;;;3.63;3.40;;;;;;;;;;5015406;28;20426;-68
2022/08/26 04:18:55;;;;;;;4.50;4.20;;;;;;;;;;5015513;28;20487;-79
2022/08/26 04:21:21;;;;;;;4.40;4.13;;;;;;;;;;5015416;28;20493;-73
2022/08/26 04:23:48;;;;;;;3.90;3.70;;;;;;;;;;5015213;28;20829;-67
2022/08/26 04:26:14;;;;;;;4.20;4.10;;;;;;;;;;5015109;28;20533;-68
2022/08/26 04:28:40;;;;;;;3.60;3.50;;;;;;;;;;5015375;28;20417;-67
2022/08/26 04:31:09;;;;;;;4.00;3.90;;;;;;;;;;5014869;28;20755;-67
2022/08/26 04:33:35;;;;;;;4.17;4.07;;;;;;;;;;5015031;28;20412;-75
2022/08/26 04:36:02;;;;;;;7.50;4.63;;;;;;;;;;5014108;28;20402;-67
2022/08/26 04:38:29;;;;;;;4.40;4.03;;;;;;;;;;5014873;28;20406;-67
2022/08/26 04:40:55;;;;;;;6.53;3.97;;;;;;;;;;5014839;28;20432;-71
2022/08/26 04:43:21;;;;;;;4.47;4.17;;;;;;;;;;5015093;28;20420;-71
2022/08/26 04:45:47;;;;;;;4.87;4.47;;;;;;;;;;5014802;28;20405;-67
2022/08/26 04:48:14;;;;;;;4.10;3.90;;;;;;;;;;5014718;28;20399;-71
2022/08/26 04:50:40;;;;;;;4.20;4.10;;;;;;;;;;5014673;28;20418;-69
2022/08/26 04:53:06;;;;;;;4.93;4.70;;;;;;;;;;5014318;28;20517;-69
2022/08/26 04:55:32;;;;;;;4.43;4.03;;;;;;;;;;5014899;28;20469;-67
2022/08/26 04:57:58;;;;;;;4.67;4.37;;;;;;;;;;5014621;28;20813;-68
2022/08/26 05:00:24;;;;;;;4.13;3.90;;;;;;;;;;5014558;28;20785;-67
2022/08/26 05:02:50;;;;;;;4.77;4.47;;;;;;;;;;5014781;28;20415;-67
2022/08/26 05:05:16;;;;;;;4.17;4.07;;;;;;;;;;5029509;28;20792;-67
2022/08/26 05:07:43;;;;;;;3.90;3.73;;;;;;;;;;5014362;28;20424;-68
2022/08/26 05:10:09;;;;;;;5.30;4.90;;;;;;;;;;5014370;28;20889;-68
2022/08/26 05:12:35;;;;;;;4.27;3.97;;;;;;;;;;5014252;28;20505;-68
2022/08/26 05:15:01;;;;;;;4.90;4.70;;;;;;;;;;5014291;28;20405;-67
2022/08/26 05:17:27;;;;;;;7.20;4.40;;;;;;;;;;5014239;28;20416;-74
2022/08/26 05:19:53;;;;;;;7.30;6.70;;;;;;;;;;5014127;28;20408;-74
2022/08/26 05:22:19;;;;;;;8.70;7.97;;;;;;;;;;5029246;28;20786;-70
2022/08/26 05:24:45;;;;;;;6.60;6.30;;;;;;;;;;5014140;28;20466;-70
2022/08/26 05:27:12;;;;;;;5.30;5.10;;;;;;;;;;5014074;28;20418;-68
2022/08/26 05:29:38;;;;;;;5.90;5.60;;;;;;;;;;5014069;28;20893;-69
2022/08/26 05:32:04;;;;;;;6.23;5.70;;;;;;;;;;5014303;28;20572;-69
2022/08/26 05:34:30;;;;;;;10.37;6.60;;;;;;;;;;5014207;28;20544;-71
2022/08/26 05:36:56;;;;;;;6.43;6.03;;;;;;;;;;5013846;28;20506;-75
2022/08/26 05:39:23;;;;;;;5.67;5.17;;;;;;;;;;5013919;28;20396;-70
2022/08/26 05:41:49;;;;;;;6.10;5.60;;;;;;;;;;5013985;28;20882;-69
2022/08/26 05:44:17;;;;;;;5.50;5.00;;;;;;;;;;5013898;28;20431;-69
2022/08/26 05:46:44;;;;;;;5.10;4.63;;;;;;;;;;5013890;28;20486;-81
2022/08/26 05:49:10;;;;;;;5.30;4.83;;;;;;;;;;5013863;28;20403;-72
2022/08/26 05:51:37;;;;;;;4.97;4.53;;;;;;;;;;5029213;28;20497;-68
2022/08/26 05:54:05;;;;;;;5.13;4.73;;;;;;;;;;5028988;28;20870;-70
2022/08/26 05:56:31;;;;;;;5.60;5.10;;;;;;;;;;5013704;28;20402;-72
2022/08/26 05:58:57;;;;;;;5.30;5.03;;;;;;;;;;5013814;28;20422;-70
2022/08/26 06:01:25;;;;;;;5.17;4.87;;;;;;;;;;5013740;28;20503;-69
2022/08/26 06:03:52;;;;;;;5.50;5.20;;;;;;;;;;5013641;28;20406;-71
2022/08/26 06:06:24;;;;;;;8.20;4.90;;;;;;;;;;5028727;28;20784;-69
2022/08/26 06:08:50;;;;;;;10.30;4.90;;;;;;;;;;5013956;28;20465;-70
2022/08/26 06:11:17;;;;;;;5.23;4.70;;;;;;;;;;5013609;28;20404;-75
2022/08/26 06:13:44;;;;;;;5.27;4.90;;;;;;;;;;5013506;28;20410;-67
2022/08/26 06:16:11;;;;;;;11.53;10.53;;;;;;;;;;5015788;28;20407;-66
2022/08/26 06:18:39;;;;;;;10.40;9.63;;;;;;;;;;5013606;28;20428;-69
2022/08/26 06:21:19;;;;;;;8.53;5.30;;;;;;;;;;5013547;28;20497;-66
2022/08/26 06:26:31;;;;;;;5.70;5.30;;;;;;;;;;5019841;28;20487;-70
2022/08/26 06:28:57;;;;;;;4.83;4.53;;;;;;;;;;5021413;28;20417;-67
2022/08/26 06:31:24;;;;;;;5.20;4.87;;;;;;;;;;5021129;28;20832;-68
2022/08/26 06:33:51;;;;;;;6.40;5.87;;;;;;;;;;5020332;28;20964;-66
2022/08/26 06:36:18;;;;;;;4.30;4.20;;;;;;;;;;5025046;28;20834;-67
2022/08/26 06:38:44;;;;;;;4.73;4.40;;;;;;;;;;5037783;28;20823;-65
2022/08/26 06:41:10;;;;;;;6.90;4.70;;;;;;;;;;5020420;28;20424;-68
2022/08/26 06:43:37;;;;;;;4.63;4.50;;;;;;;;;;5019372;28;20410;-67
2022/08/26 06:46:04;;;;;;;4.77;4.37;;;;;;;;;;5019956;28;20410;-70
2022/08/26 06:48:31;;;;;;;5.17;4.87;;;;;;;;;;5017681;28;20471;-67
2022/08/26 06:51:03;;;;;;;5.20;4.87;;;;;;;;;;5013378;28;20413;-69
2022/08/26 06:53:29;;;;;;;7.90;4.50;;;;;;;;;;5013018;28;20556;-71
2022/08/26 06:55:55;;;;;;;4.80;4.50;;;;;;;;;;5013171;28;20857;-68
2022/08/26 06:58:21;;;;;;;4.43;4.37;;;;;;;;;;5013624;28;20924;-74
2022/08/26 07:00:47;;;;;;;5.77;4.40;;;;;;;;;;5016846;28;20406;-67
2022/08/26 07:03:13;;;;;;;4.47;4.37;;;;;;;;;;5016990;28;20439;-67
2022/08/26 07:05:39;;;;;;;4.60;4.40;;;;;;;;;;5017019;28;20418;-69
2022/08/26 07:08:05;;;;;;;4.20;4.10;;;;;;;;;;5016771;28;20403;-74
2022/08/26 07:10:31;;;;;;;4.50;4.40;;;;;;;;;;5016898;28;20633;-67
2022/08/26 07:12:57;;;;;;;4.60;4.40;;;;;;;;;;5016453;28;21014;-66
2022/08/26 07:15:23;;;;;;;6.13;4.10;;;;;;;;;;5016045;28;20480;-74
2022/08/26 07:17:49;;;;;;;4.87;4.53;;;;;;;;;;5016222;28;20440;-72
2022/08/26 07:20:16;;;;;;;4.70;4.50;;;;;;;;;;5016450;28;20408;-69
2022/08/26 07:22:42;;;;;;;4.17;4.00;;;;;;;;;;5016384;28;20416;-65
2022/08/26 07:25:08;;;;;;;4.00;3.90;;;;;;;;;;5016355;28;20882;-75
2022/08/26 07:27:35;;;;;;;3.87;3.60;;;;;;;;;;5016263;28;20880;-74
2022/08/26 07:30:02;;;;;;;4.37;4.27;;;;;;;;;;5015872;28;20885;-72
2022/08/26 07:32:28;;;;;;;4.20;3.90;;;;;;;;;;5015648;28;20940;-69
2022/08/26 07:34:54;;;;;;;5.43;4.00;;;;;;;;;;5016191;28;20418;-66
2022/08/26 07:37:21;;;;;;;4.70;4.17;;;;;;;;;;5016121;28;20401;-66
2022/08/26 07:39:47;;;;;;;6.67;4.10;;;;;;;;;;5016377;28;20468;-65
2022/08/26 07:42:14;;;;;;;5.77;4.33;;;;;;;;;;5016326;28;20413;-75
2022/08/26 07:44:40;;;;;;;7.80;4.10;;;;;;;;;;5016256;28;20425;-75
2022/08/26 07:47:07;;;;;;;4.50;4.30;;;;;;;;;;5016167;28;20835;-68
2022/08/26 07:49:33;;;;;;;4.00;3.90;;;;;;;;;;5016333;28;20501;-69
2022/08/26 07:52:00;;;;;;;5.63;4.60;;;;;;;;;;5015715;28;20997;-76
2022/08/26 07:54:26;;;;;;;8.20;4.60;;;;;;;;;;5015939;28;20404;-76
2022/08/26 07:56:52;;;;;;;9.23;4.40;;;;;;;;;;5031141;28;20437;-74
2022/08/26 07:59:18;;;;;;;4.40;4.13;;;;;;;;;;5015681;28;20423;-81
2022/08/26 08:01:45;;;;;;;4.53;4.13;;;;;;;;;;5015819;28;20420;-65
2022/08/26 08:04:11;;;;;;;4.30;4.20;;;;;;;;;;5015591;28;20418;-66
2022/08/26 08:06:37;;;;;;;4.60;4.27;;;;;;;;;;5015517;28;20407;-66
2022/08/26 08:09:04;;;;;;;4.43;3.97;;;;;;;;;;5015416;28;20411;-65
2022/08/26 08:11:31;;;;;;;4.40;4.10;;;;;;;;;;5015332;28;20533;-65
2022/08/26 08:13:59;;;;;;;4.17;4.07;;;;;;;;;;5015251;28;20418;-66
2022/08/26 08:16:25;;;;;;;4.00;3.80;;;;;;;;;;5015095;28;20536;-65
2022/08/26 08:18:52;;;;;;;4.37;3.97;;;;;;;;;;5014997;28;20501;-67
2022/08/26 08:21:18;;;;;;;4.37;4.10;;;;;;;;;;5015318;28;20424;-66
2022/08/26 08:23:44;;;;;;;4.50;4.20;;;;;;;;;;5015019;28;20903;-67
2022/08/26 08:26:10;;;;;;;3.97;3.87;;;;;;;;;;5015088;28;20405;-70
2022/08/26 08:28:39;;;;;;;4.40;4.10;;;;;;;;;;5014955;28;20409;-73
2022/08/26 08:31:05;;;;;;;4.00;3.80;;;;;;;;;;5014956;28;20402;-69
2022/08/26 08:33:32;;;;;;;5.03;4.30;;;;;;;;;;5014863;28;20959;-68
2022/08/26 08:35:59;;;;;;;4.07;3.77;;;;;;;;;;5014801;28;20427;-66
2022/08/26 08:38:25;;;;;;;3.47;3.37;;;;;;;;;;5014639;28;20501;-69
2022/08/26 08:40:51;;;;;;;3.97;3.60;;;;;;;;;;5014739;28;20494;-74
2022/08/26 08:43:23;;;;;;;4.03;3.37;;;;;;;;;;5014494;28;20743;-76
2022/08/26 08:45:56;;;;;;;4.43;3.60;;;;;;;;;;5014669;28;20405;-74
2022/08/26 08:48:28;;;;;;;7.77;3.00;;;;;;;;;;5014960;28;20490;-75
2022/08/26 08:51:15;;;;;;;6.67;3.30;;;;;;;;;;5014495;28;20403;-77
2022/08/26 08:53:43;;;;;;;4.77;3.23;;;;;;;;;;5029368;28;20541;-68
2022/08/26 08:56:15;;;;;;;3.83;3.63;;;;;;;;;;5014445;28;20406;-74
2022/08/26 08:58:47;;;;;;;3.63;3.33;;;;;;;;;;5014460;28;20399;-70
2022/08/26 09:01:37;;;;;;;6.17;3.60;;;;;;;;;;5014257;28;20427;-74
2022/08/26 09:04:09;;;;;;;3.50;3.30;;;;;;;;;;5016358;28;20785;-76
2022/08/26 09:06:35;;;;;;;3.70;3.50;;;;;;;;;;5014426;28;20410;-73
2022/08/26 09:09:02;;;;;;;3.93;3.73;;;;;;;;;;5014128;28;20857;-71
2022/08/26 09:11:28;;;;;;;7.03;4.10;;;;;;;;;;5014084;28;20469;-69
2022/08/26 09:13:54;;;;;;;8.23;3.63;;;;;;;;;;5014074;28;20827;-66
2022/08/26 09:16:39;;;;;;;4.87;4.10;;;;;;;;;;5014050;28;20404;-67
2022/08/26 09:19:23;;;;;;;6.73;4.10;;;;;;;;;;5013883;28;20405;-72
2022/08/26 09:21:56;;;;;;;7.00;3.63;;;;;;;;;;5013736;28;20402;-70
2022/08/26 09:24:22;;;;;;;4.97;4.30;;;;;;;;;;5014292;28;20405;-79
2022/08/26 09:26:48;;;;;;;6.87;4.00;;;;;;;;;;5014151;28;20481;-72
2022/08/26 09:29:17;;;;;;;13.40;3.90;;;;;;;;;;5014003;28;20450;-72
2022/08/26 09:31:44;;;;;;;3.87;3.77;;;;;;;;;;5013872;28;20460;-68
2022/08/26 09:34:13;;;;;;;8.13;4.40;;;;;;;;;;5014016;28;20419;-70
2022/08/26 09:36:41;;;;;;;7.03;3.40;;;;;;;;;;5013810;28;20410;-71
2022/08/26 09:39:26;;;;;;;10.43;3.53;;;;;;;;;;5013835;28;20904;-68
2022/08/26 09:42:07;;;;;;;4.43;4.13;;;;;;;;;;5013776;28;20479;-67
2022/08/26 09:44:34;;;;;;;3.90;3.60;;;;;;;;;;5013869;28;21008;-68
2022/08/26 09:47:02;;;;;;;4.77;3.30;;;;;;;;;;5013503;28;20407;-72
2022/08/26 09:49:36;;;;;;;3.47;3.37;;;;;;;;;;5013821;28;20425;-74
2022/08/26 09:52:04;;;;;;;4.20;3.87;;;;;;;;;;5013551;28;20494;-75
2022/08/26 09:54:30;;;;;;;6.03;4.17;;;;;;;;;;5013220;28;20397;-68
2022/08/26 09:57:15;;;;;;;15.20;3.80;;;;;;;;;;5013592;28;20755;-65
2022/08/26 09:59:42;;;;;;;4.10;3.73;;;;;;;;;;5028791;28;20799;-65
2022/08/26 10:02:28;;;;;;;4.80;4.37;;;;;;;;;;5013359;28;20439;-67
2022/08/26 10:04:55;;;;;;;6.33;3.90;;;;;;;;;;5013488;28;20415;-66
2022/08/26 10:07:34;;;;;;;5.47;3.73;;;;;;;;;;5013646;28;20403;-66
2022/08/26 10:10:02;;;;;;;5.17;4.20;;;;;;;;;;5013445;28;20419;-65
2022/08/26 10:12:30;;;;;;;6.20;4.40;;;;;;;;;;5013359;28;20522;-66
2022/08/26 10:14:59;;;;;;;4.20;3.77;;;;;;;;;;5013509;28;20400;-66
2022/08/26 10:17:29;;;;;;;3.60;3.30;;;;;;;;;;5013573;28;20405;-67
2022/08/26 10:20:22;;;;;;;5.53;3.80;;;;;;;;;;5013541;28;20403;-78
2022/08/26 10:23:09;;;;;;;4.73;4.30;;;;;;;;;;5013916;28;20836;-68
2022/08/26 10:25:46;;;;;;;4.00;3.70;;;;;;;;;;5013656;28;20416;-66
2022/08/26 10:28:39;;;;;;;5.57;3.67;;;;;;;;;;5013439;28;20903;-66
2022/08/26 10:31:16;;;;;;;9.90;4.33;;;;;;;;;;5019999;28;20429;-66
2022/08/26 10:33:42;;;;;;;4.23;4.03;;;;;;;;;;5013367;28;20506;-69
2022/08/26 10:36:47;;;;;;;8.47;3.70;;;;;;;;;;5017187;28;20404;-66
2022/08/26 10:38:58;;;;;;;4.70;4.27;;;;;;;;;;5017009;28;20420;-66
2022/08/26 10:41:26;;;;;;;4.43;4.00;;;;;;;;;;5016905;28;20430;-67
2022/08/26 10:43:57;;;;;;;8.93;4.40;;;;;;;;;;5016965;28;20867;-68
2022/08/26 10:46:27;;;;;;;6.30;4.10;;;;;;;;;;5017052;28;20910;-67
2022/08/26 10:48:53;;;;;;;4.53;3.83;;;;;;;;;;5017000;28;20443;-67
2022/08/26 10:51:23;;;;;;;5.27;3.80;;;;;;;;;;5016671;28;20946;-68
2022/08/26 10:54:08;;;;;;;6.37;3.90;;;;;;;;;;5016868;28;20188;-67
2022/08/26 10:56:46;;;;;;;3.80;3.50;;;;;;;;;;5016746;28;20765;-66
2022/08/26 10:59:12;;;;;;;5.63;3.80;;;;;;;;;;5016820;28;20447;-66
2022/08/26 11:01:48;;;;;;;3.73;3.40;;;;;;;;;;5016723;28;20502;-67
2022/08/26 11:04:32;;;;;;;5.20;4.00;;;;;;;;;;5016716;28;20646;-66
2022/08/26 11:07:17;;;;;;;3.63;3.53;;;;;;;;;;5016611;28;20424;-67
2022/08/26 11:09:46;;;;;;;3.60;3.40;;;;;;;;;;5016614;28;20393;-66
2022/08/26 11:12:31;;;;;;;3.50;3.30;;;;;;;;;;5016535;28;20468;-68
2022/08/26 11:14:57;;;;;;;6.07;3.73;;;;;;;;;;5016477;28;20872;-68
2022/08/26 11:17:41;;;;;;;4.00;3.70;;;;;;;;;;5016497;28;20397;-67
2022/08/26 11:20:07;;;;;;;4.23;3.80;;;;;;;;;;5016355;28;20744;-68
2022/08/26 11:22:36;;;;;;;4.33;4.03;;;;;;;;;;5016417;28;20492;-67
2022/08/26 11:25:10;;;;;;;4.80;3.80;;;;;;;;;;5016383;28;20476;-67
2022/08/26 11:27:36;;;;;;;13.90;4.00;;;;;;;;;;5016174;28;20819;-69
2022/08/26 11:30:14;;;;;;;13.90;4.10;;;;;;;;;;5016211;28;20402;-67
2022/08/26 11:32:40;;;;;;;6.53;3.90;;;;;;;;;;5016334;28;20239;-68
2022/08/26 11:35:08;;;;;;;7.87;3.60;;;;;;;;;;5016164;28;20782;-67
2022/08/26 11:37:40;;;;;;;7.80;4.27;;;;;;;;;;5016135;28;20413;-67
2022/08/26 11:40:12;;;;;;;4.33;4.00;;;;;;;;;;5016041;28;20401;-67
2022/08/26 11:42:39;;;;;;;3.93;3.63;;;;;;;;;;5016265;28;20451;-66
2022/08/26 11:45:23;;;;;;;6.77;4.33;;;;;;;;;;5015548;28;20951;-67
2022/08/26 11:47:50;;;;;;;6.10;4.07;;;;;;;;;;5015816;28;20462;-68
2022/08/26 11:50:25;;;;;;;6.20;4.33;;;;;;;;;;5015878;28;20397;-67
2022/08/26 11:52:53;;;;;;;4.67;4.47;;;;;;;;;;5015629;28;20479;-67
2022/08/26 11:55:20;;;;;;;7.40;3.97;;;;;;;;;;5016063;28;20402;-68
2022/08/26 11:57:48;;;;;;;4.27;3.90;;;;;;;;;;5015657;28;20406;-69
2022/08/26 12:00:23;;;;;;;5.50;3.93;;;;;;;;;;5015748;28;20402;-67
2022/08/26 12:02:50;;;;;;;3.93;3.83;;;;;;;;;;5015862;28;20978;-66
2022/08/26 12:05:20;;;;;;;4.90;3.90;;;;;;;;;;5015565;28;20744;-67
2022/08/26 12:07:49;;;;;;;8.43;3.60;;;;;;;;;;5015506;28;20415;-66
2022/08/26 12:10:24;;;;;;;4.33;3.90;;;;;;;;;;5015437;28;20778;-66
2022/08/26 12:12:54;;;;;;;4.87;4.33;;;;;;;;;;5015376;28;20467;-67
2022/08/26 12:15:21;;;;;;;4.23;3.93;;;;;;;;;;5015386;28;20401;-68
2022/08/26 12:17:48;;;;;;;3.83;3.73;;;;;;;;;;5015573;28;20492;-68
2022/08/26 12:20:45;;;;;;;8.00;4.10;;;;;;;;;;5015228;28;20758;-67
2022/08/26 12:23:29;;;;;;;4.33;3.93;;;;;;;;;;5016200;28;20524;-66
2022/08/26 12:26:03;;;;;;;4.37;4.07;;;;;;;;;;5015221;28;20748;-67
2022/08/26 12:28:29;;;;;;;10.20;3.50;;;;;;;;;;5015167;28;20414;-67
2022/08/26 12:31:03;;;;;;;4.23;3.80;;;;;;;;;;5015227;28;20400;-68
2022/08/26 12:33:29;;;;;;;4.13;3.90;;;;;;;;;;5014985;28;20496;-67
2022/08/26 12:35:56;;;;;;;6.07;4.00;;;;;;;;;;5016980;28;20401;-67
2022/08/26 12:38:22;;;;;;;4.17;3.70;;;;;;;;;;5016724;28;20440;-67
2022/08/26 12:40:49;;;;;;;4.63;4.30;;;;;;;;;;5015040;28;20911;-68
2022/08/26 12:43:35;;;;;;;4.37;4.17;;;;;;;;;;5015064;28;20451;-67
2022/08/26 12:46:03;;;;;;;4.40;3.83;;;;;;;;;;5014804;28;20483;-67
2022/08/26 12:48:31;;;;;;;8.37;4.30;;;;;;;;;;5014666;28;20800;-68
2022/08/26 12:50:57;;;;;;;5.27;3.93;;;;;;;;;;5014655;28;20397;-67
2022/08/26 12:53:24;;;;;;;6.73;4.57;;;;;;;;;;5014640;28;20559;-67
2022/08/26 12:55:52;;;;;;;3.90;3.80;;;;;;;;;;5014659;28;20437;-67
2022/08/26 12:58:32;;;;;;;4.53;4.33;;;;;;;;;;5014042;28;20405;-67
2022/08/26 13:01:18;;;;;;;5.20;4.27;;;;;;;;;;5014609;28;20405;-67
2022/08/26 13:03:45;;;;;;;4.27;3.97;;;;;;;;;;5014355;28;20421;-68
2022/08/26 13:06:17;;;;;;;4.20;3.90;;;;;;;;;;5014428;28;20500;-70
2022/08/26 13:08:45;;;;;;;6.57;4.40;;;;;;;;;;5014595;28;20739;-67
2022/08/26 13:11:30;;;;;;;4.83;4.37;;;;;;;;;;5014376;28;20394;-67
2022/08/26 13:14:16;;;;;;;4.63;4.30;;;;;;;;;;5014298;28;20907;-67
2022/08/26 13:16:43;;;;;;;4.17;4.07;;;;;;;;;;5014234;28;20413;-68
2022/08/26 13:19:11;;;;;;;4.73;4.33;;;;;;;;;;5014283;28;20397;-67
2022/08/26 13:21:40;;;;;;;3.67;3.60;;;;;;;;;;5014227;28;20429;-67
2022/08/26 13:24:17;;;;;;;10.33;3.80;;;;;;;;;;5014209;28;20401;-67
2022/08/26 13:26:44;;;;;;;6.40;3.90;;;;;;;;;;5014284;28;20404;-68
2022/08/26 13:29:11;;;;;;;4.70;4.30;;;;;;;;;;5014168;28;20404;-67
2022/08/26 13:31:39;;;;;;;4.40;4.23;;;;;;;;;;5014005;28;20401;-70
2022/08/26 13:34:05;;;;;;;4.93;4.50;;;;;;;;;;5014153;28;20421;-68
2022/08/26 13:36:31;;;;;;;5.50;5.20;;;;;;;;;;5014294;28;20551;-69
2022/08/26 13:38:57;;;;;;;5.70;4.20;;;;;;;;;;5014135;28;20445;-73
2022/08/26 13:41:23;;;;;;;4.00;3.70;;;;;;;;;;5014277;28;20490;-69
2022/08/26 13:43:49;;;;;;;4.47;4.07;;;;;;;;;;5014066;28;20436;-67
2022/08/26 13:46:15;;;;;;;4.30;4.00;;;;;;;;;;5013975;28;20409;-69
2022/08/26 13:48:41;;;;;;;3.83;3.53;;;;;;;;;;5014188;28;20416;-74
2022/08/26 13:51:07;;;;;;;4.63;4.30;;;;;;;;;;5013749;28;20543;-74
2022/08/26 13:53:33;;;;;;;3.67;3.40;;;;;;;;;;5013679;28;20695;-74
2022/08/26 13:56:00;;;;;;;4.60;4.33;;;;;;;;;;5013963;28;20543;-74
2022/08/26 13:58:27;;;;;;;5.60;3.83;;;;;;;;;;5028868;28;20939;-73
2022/08/26 14:00:54;;;;;;;7.03;4.33;;;;;;;;;;5013747;28;20484;-74
2022/08/26 14:03:20;;;;;;;4.37;4.03;;;;;;;;;;5013672;28;20900;-68
2022/08/26 14:05:46;;;;;;;4.40;4.20;;;;;;;;;;5013611;28;20459;-67
2022/08/26 14:08:12;;;;;;;3.93;3.80;;;;;;;;;;5014550;28;20433;-68
2022/08/26 14:10:38;;;;;;;4.00;3.70;;;;;;;;;;5017899;28;20463;-67
2022/08/26 14:13:04;;;;;;;7.23;4.10;;;;;;;;;;5017469;28;20503;-67
2022/08/26 14:15:34;;;;;;;4.43;4.23;;;;;;;;;;5017521;28;20401;-67
2022/08/26 14:18:02;;;;;;;4.90;4.47;;;;;;;;;;5017413;28;20420;-67
2022/08/26 14:20:30;;;;;;;4.10;3.90;;;;;;;;;;5017492;28;20401;-69
2022/08/26 14:22:56;;;;;;;4.40;4.30;;;;;;;;;;5017511;28;20407;-68
2022/08/26 14:25:22;;;;;;;5.20;4.40;;;;;;;;;;5017538;28;20397;-66
2022/08/26 14:27:49;;;;;;;4.20;3.83;;;;;;;;;;5017440;28;20400;-66
2022/08/26 14:30:15;;;;;;;4.13;3.93;;;;;;;;;;5017265;28;20492;-68
2022/08/26 14:32:43;;;;;;;3.40;3.23;;;;;;;;;;5017214;28;20472;-66
2022/08/26 14:35:11;;;;;;;4.70;4.00;;;;;;;;;;5017279;28;20491;-66
2022/08/26 14:37:37;;;;;;;6.83;4.53;;;;;;;;;;5017184;28;20405;-67
2022/08/26 14:40:05;;;;;;;5.70;5.20;;;;;;;;;;5017246;28;20400;-67
2022/08/26 14:42:31;;;;;;;6.20;5.60;;;;;;;;;;5017107;28;20396;-74
2022/08/26 14:44:58;;;;;;;14.50;6.07;;;;;;;;;;5017151;28;20764;-67
2022/08/26 14:47:24;;;;;;;7.10;6.07;;;;;;;;;;5016818;28;20436;-67
2022/08/26 14:49:50;;;;;;;6.77;5.87;;;;;;;;;;5017191;28;20451;-67
2022/08/26 14:52:16;;;;;;;7.20;6.50;;;;;;;;;;5016784;28;20929;-66
2022/08/26 14:54:42;;;;;;;14.40;6.63;;;;;;;;;;5016843;28;20890;-67
2022/08/26 14:57:10;;;;;;;11.57;6.77;;;;;;;;;;5016881;28;20435;-67